sensor_id;sensor_type;location;lat;lon;timestamp;pressure;altitude;pressure_sealevel;temperature;humidity
39301;BME280;25019;42.626;23.380;2022-11-03T00:01:35;94927.75;;;13.48;48.31
39301;BME280;25019;42.626;23.380;2022-11-03T00:04:06;94958.00;;;13.59;48.71
39301;BME280;25019;42.626;23.380;2022-11-03T00:06:32;94853.00;;;12.88;48.83
39301;BME280;25019;42.626;23.380;2022-11-03T00:08:59;94873.34;;;12.94;48.89
39301;BME280;25019;42.626;23.380;2022-11-03T00:11:26;94967.53;;;13.50;49.13
39301;BME280;25019;42.626;23.380;2022-11-03T00:13:52;94923.03;;;13.33;49.03
39301;BME280;25019;42.626;23.380;2022-11-03T00:16:17;94836.81;;;12.67;49.02
39301;BME280;25019;42.626;23.380;2022-11-03T00:18:43;94883.75;;;12.96;49.25
39301;BME280;25019;42.626;23.380;2022-11-03T00:21:11;94960.53;;;13.43;49.24
39301;BME280;25019;42.626;23.380;2022-11-03T00:23:39;94966.09;;;13.42;49.38
39301;BME280;25019;42.626;23.380;2022-11-03T00:26:19;94890.38;;;12.93;49.46
39301;BME280;25019;42.626;23.380;2022-11-03T00:28:53;94956.72;;;13.39;49.61
39301;BME280;25019;42.626;23.380;2022-11-03T00:31:20;94965.50;;;13.40;49.67
39301;BME280;25019;42.626;23.380;2022-11-03T00:33:47;94893.56;;;12.90;50.17
39301;BME280;25019;42.626;23.380;2022-11-03T00:36:16;94930.41;;;13.21;50.35
39301;BME280;25019;42.626;23.380;2022-11-03T00:38:42;94897.38;;;12.99;50.21
39301;BME280;25019;42.626;23.380;2022-11-03T00:41:08;94962.06;;;13.39;50.57
39301;BME280;25019;42.626;23.380;2022-11-03T00:43:35;94911.00;;;13.03;50.31
39301;BME280;25019;42.626;23.380;2022-11-03T00:46:02;94886.06;;;12.87;51.11
39301;BME280;25019;42.626;23.380;2022-11-03T00:48:27;94821.91;;;12.44;51.13
39301;BME280;25019;42.626;23.380;2022-11-03T00:53:29;94904.53;;;12.94;51.43
39301;BME280;25019;42.626;23.380;2022-11-03T00:55:54;94861.06;;;12.66;51.43
39301;BME280;25019;42.626;23.380;2022-11-03T00:58:21;94945.09;;;13.23;51.61
39301;BME280;25019;42.626;23.380;2022-11-03T01:00:47;94947.75;;;13.23;51.83
39301;BME280;25019;42.626;23.380;2022-11-03T01:03:13;94856.41;;;12.56;51.79
39301;BME280;25019;42.626;23.380;2022-11-03T01:05:44;94911.22;;;12.96;52.19
39301;BME280;25019;42.626;23.380;2022-11-03T01:08:35;94972.13;;;13.32;52.03
39301;BME280;25019;42.626;23.380;2022-11-03T01:11:08;94825.59;;;12.38;52.70
39301;BME280;25019;42.626;23.380;2022-11-03T01:13:54;94919.16;;;12.91;52.59
39301;BME280;25019;42.626;23.380;2022-11-03T01:16:20;94889.69;;;12.76;52.63
39301;BME280;25019;42.626;23.380;2022-11-03T01:18:46;94907.94;;;12.89;52.41
39301;BME280;25019;42.626;23.380;2022-11-03T01:21:11;94906.03;;;12.84;52.60
39301;BME280;25019;42.626;23.380;2022-11-03T01:23:37;94859.38;;;12.59;52.35
39301;BME280;25019;42.626;23.380;2022-11-03T01:26:07;94962.50;;;13.31;52.53
39301;BME280;25019;42.626;23.380;2022-11-03T01:28:34;94888.41;;;12.83;52.64
39301;BME280;25019;42.626;23.380;2022-11-03T01:31:10;94913.94;;;13.01;52.49
39301;BME280;25019;42.626;23.380;2022-11-03T01:33:37;94946.19;;;13.27;52.80
39301;BME280;25019;42.626;23.380;2022-11-03T01:36:03;94964.72;;;13.39;53.08
39301;BME280;25019;42.626;23.380;2022-11-03T01:38:33;94924.66;;;13.07;53.66
39301;BME280;25019;42.626;23.380;2022-11-03T01:41:01;94949.94;;;13.26;53.64
39301;BME280;25019;42.626;23.380;2022-11-03T01:43:28;94828.66;;;12.52;53.96
39301;BME280;25019;42.626;23.380;2022-11-03T01:46:22;94964.25;;;13.42;54.27
39301;BME280;25019;42.626;23.380;2022-11-03T01:48:59;94877.81;;;12.88;54.72
39301;BME280;25019;42.626;23.380;2022-11-03T01:51:28;94966.09;;;13.42;54.88
39301;BME280;25019;42.626;23.380;2022-11-03T01:53:58;94909.22;;;13.09;55.09
39301;BME280;25019;42.626;23.380;2022-11-03T01:56:24;94934.72;;;13.27;54.72
39301;BME280;25019;42.626;23.380;2022-11-03T01:58:53;94949.03;;;13.43;54.69
39301;BME280;25019;42.626;23.380;2022-11-03T02:01:20;94927.25;;;13.29;54.73
39301;BME280;25019;42.626;23.380;2022-11-03T02:03:51;94919.31;;;13.34;54.51
39301;BME280;25019;42.626;23.380;2022-11-03T02:06:22;94885.41;;;13.02;54.85
39301;BME280;25019;42.626;23.380;2022-11-03T02:09:00;94882.16;;;12.95;54.62
39301;BME280;25019;42.626;23.380;2022-11-03T02:11:27;94857.59;;;12.93;55.24
39301;BME280;25019;42.626;23.380;2022-11-03T02:14:12;94916.75;;;13.17;54.84
39301;BME280;25019;42.626;23.380;2022-11-03T02:16:41;94869.28;;;12.86;55.27
39301;BME280;25019;42.626;23.380;2022-11-03T02:19:16;94979.28;;;13.54;55.25
39301;BME280;25019;42.626;23.380;2022-11-03T02:21:52;94978.22;;;13.55;55.41
39301;BME280;25019;42.626;23.380;2022-11-03T02:24:33;94973.09;;;13.48;55.63
39301;BME280;25019;42.626;23.380;2022-11-03T02:27:06;94934.41;;;13.23;55.95
39301;BME280;25019;42.626;23.380;2022-11-03T02:29:32;94945.94;;;13.29;55.97
39301;BME280;25019;42.626;23.380;2022-11-03T02:32:04;94870.53;;;12.79;56.09
39301;BME280;25019;42.626;23.380;2022-11-03T02:34:40;94979.75;;;13.45;56.45
39301;BME280;25019;42.626;23.380;2022-11-03T02:37:12;94901.31;;;12.92;56.80
39301;BME280;25019;42.626;23.380;2022-11-03T02:39:43;94959.09;;;13.36;57.17
39301;BME280;25019;42.626;23.380;2022-11-03T02:42:11;94908.84;;;13.00;57.77
39301;BME280;25019;42.626;23.380;2022-11-03T02:44:38;94952.31;;;13.28;57.78
39301;BME280;25019;42.626;23.380;2022-11-03T02:47:09;94903.97;;;12.92;57.47
39301;BME280;25019;42.626;23.380;2022-11-03T02:49:54;94889.78;;;12.86;57.91
39301;BME280;25019;42.626;23.380;2022-11-03T02:55:09;94971.38;;;13.37;57.51
39301;BME280;25019;42.626;23.380;2022-11-03T02:57:42;94871.75;;;12.71;58.00
39301;BME280;25019;42.626;23.380;2022-11-03T03:00:09;94934.56;;;13.11;57.91
39301;BME280;25019;42.626;23.380;2022-11-03T03:02:42;94913.88;;;12.96;57.99
39301;BME280;25019;42.626;23.380;2022-11-03T03:05:10;94966.56;;;13.39;58.11
39301;BME280;25019;42.626;23.380;2022-11-03T03:07:43;94971.13;;;13.38;58.40
39301;BME280;25019;42.626;23.380;2022-11-03T03:10:16;94968.72;;;13.37;58.15
39301;BME280;25019;42.626;23.380;2022-11-03T03:12:53;94961.66;;;13.25;58.46
39301;BME280;25019;42.626;23.380;2022-11-03T03:15:45;94915.78;;;13.01;58.63
39301;BME280;25019;42.626;23.380;2022-11-03T03:18:26;94939.69;;;13.18;59.00
39301;BME280;25019;42.626;23.380;2022-11-03T03:21:03;94946.59;;;13.14;58.96
39301;BME280;25019;42.626;23.380;2022-11-03T03:23:38;94967.34;;;13.34;59.06
39301;BME280;25019;42.626;23.380;2022-11-03T03:26:11;94939.19;;;13.21;58.79
39301;BME280;25019;42.626;23.380;2022-11-03T03:28:56;94898.19;;;13.00;58.83
39301;BME280;25019;42.626;23.380;2022-11-03T03:31:25;94961.81;;;13.41;59.16
39301;BME280;25019;42.626;23.380;2022-11-03T03:33:53;94901.66;;;13.00;58.78
39301;BME280;25019;42.626;23.380;2022-11-03T03:36:21;94909.22;;;13.09;58.74
39301;BME280;25019;42.626;23.380;2022-11-03T03:38:55;94953.19;;;13.33;59.24
39301;BME280;25019;42.626;23.380;2022-11-03T03:41:23;94895.50;;;12.95;59.25
39301;BME280;25019;42.626;23.380;2022-11-03T03:43:52;94975.16;;;13.41;59.26
39301;BME280;25019;42.626;23.380;2022-11-03T03:46:21;94978.00;;;13.34;59.77
39301;BME280;25019;42.626;23.380;2022-11-03T03:48:47;94937.13;;;13.01;59.75
39301;BME280;25019;42.626;23.380;2022-11-03T03:51:15;94975.78;;;13.26;59.95
39301;BME280;25019;42.626;23.380;2022-11-03T03:53:43;94860.00;;;12.44;60.39
39301;BME280;25019;42.626;23.380;2022-11-03T03:56:09;94977.53;;;13.15;60.67
39301;BME280;25019;42.626;23.380;2022-11-03T03:58:35;94934.78;;;12.82;60.76
39301;BME280;25019;42.626;23.380;2022-11-03T04:01:00;94955.69;;;12.91;61.07
39301;BME280;25019;42.626;23.380;2022-11-03T04:03:26;94854.31;;;12.13;61.58
39301;BME280;25019;42.626;23.380;2022-11-03T04:05:53;94975.34;;;12.84;61.73
39301;BME280;25019;42.626;23.380;2022-11-03T04:08:19;94955.03;;;12.61;61.89
39301;BME280;25019;42.626;23.380;2022-11-03T04:10:45;94969.19;;;12.62;62.10
39301;BME280;25019;42.626;23.380;2022-11-03T04:13:30;94912.63;;;12.15;62.27
39301;BME280;25019;42.626;23.380;2022-11-03T04:16:14;94966.75;;;12.38;62.55
39301;BME280;25019;42.626;23.380;2022-11-03T04:18:59;94968.22;;;12.28;63.19
39301;BME280;25019;42.626;23.380;2022-11-03T04:21:43;94841.31;;;11.44;64.16
39301;BME280;25019;42.626;23.380;2022-11-03T04:24:29;94873.81;;;11.63;64.22
39301;BME280;25019;42.626;23.380;2022-11-03T04:27:17;94849.31;;;11.44;64.53
39301;BME280;25019;42.626;23.380;2022-11-03T04:29:44;94937.09;;;11.95;64.65
39301;BME280;25019;42.626;23.380;2022-11-03T04:32:13;94968.53;;;12.15;65.48
39301;BME280;25019;42.626;23.380;2022-11-03T04:34:40;94832.69;;;11.19;65.64
39301;BME280;25019;42.626;23.380;2022-11-03T04:37:11;94960.56;;;11.98;65.93
39301;BME280;25019;42.626;23.380;2022-11-03T04:39:37;94887.31;;;11.44;66.46
39301;BME280;25019;42.626;23.380;2022-11-03T04:42:19;94968.47;;;11.93;66.47
39301;BME280;25019;42.626;23.380;2022-11-03T04:44:46;94968.19;;;11.77;67.22
39301;BME280;25019;42.626;23.380;2022-11-03T04:47:13;94976.44;;;11.76;68.00
39301;BME280;25019;42.626;23.380;2022-11-03T04:49:38;94969.72;;;11.73;67.87
39301;BME280;25019;42.626;23.380;2022-11-03T04:52:19;94965.03;;;11.63;68.57
39301;BME280;25019;42.626;23.380;2022-11-03T04:54:48;94917.84;;;11.24;68.46
39301;BME280;25019;42.626;23.380;2022-11-03T04:57:16;94968.75;;;11.62;68.78
39301;BME280;25019;42.626;23.380;2022-11-03T04:59:44;94838.28;;;10.72;69.14
39301;BME280;25019;42.626;23.380;2022-11-03T05:02:14;94915.84;;;11.15;69.50
39301;BME280;25019;42.626;23.380;2022-11-03T05:04:41;94975.19;;;11.49;69.53
39301;BME280;25019;42.626;23.380;2022-11-03T05:07:22;94903.78;;;10.95;69.92
39301;BME280;25019;42.626;23.380;2022-11-03T05:09:48;94974.09;;;11.33;70.42
39301;BME280;25019;42.626;23.380;2022-11-03T05:12:14;94871.34;;;10.64;70.61
39301;BME280;25019;42.626;23.380;2022-11-03T05:14:40;94974.84;;;11.29;70.30
39301;BME280;25019;42.626;23.380;2022-11-03T05:17:17;94970.81;;;11.26;70.86
39301;BME280;25019;42.626;23.380;2022-11-03T05:19:45;94985.47;;;11.29;70.86
39301;BME280;25019;42.626;23.380;2022-11-03T05:22:18;94893.25;;;10.71;71.01
39301;BME280;25019;42.626;23.380;2022-11-03T05:24:44;94946.31;;;10.95;70.99
39301;BME280;25019;42.626;23.380;2022-11-03T05:27:15;94794.63;;;9.98;70.73
39301;BME280;25019;42.626;23.380;2022-11-03T05:29:43;94993.19;;;11.30;70.93
39301;BME280;25019;42.626;23.380;2022-11-03T05:32:11;94987.72;;;11.20;71.14
39301;BME280;25019;42.626;23.380;2022-11-03T05:34:43;95002.88;;;11.36;70.90
39301;BME280;25019;42.626;23.380;2022-11-03T05:37:23;95005.91;;;11.40;70.58
39301;BME280;25019;42.626;23.380;2022-11-03T05:39:49;94988.69;;;11.31;70.52
39301;BME280;25019;42.626;23.380;2022-11-03T05:44:51;94927.25;;;10.98;70.34
39301;BME280;25019;42.626;23.380;2022-11-03T05:47:20;95017.38;;;11.58;70.64
39301;BME280;25019;42.626;23.380;2022-11-03T05:49:48;95021.16;;;11.62;70.63
39301;BME280;25019;42.626;23.380;2022-11-03T05:52:20;94938.03;;;11.08;69.88
39301;BME280;25019;42.626;23.380;2022-11-03T05:54:47;94926.94;;;11.12;70.04
39301;BME280;25019;42.626;23.380;2022-11-03T05:57:14;94951.00;;;11.34;70.04
39301;BME280;25019;42.626;23.380;2022-11-03T05:59:42;95036.28;;;11.90;70.20
39301;BME280;25019;42.626;23.380;2022-11-03T06:02:39;94932.84;;;11.31;69.72
39301;BME280;25019;42.626;23.380;2022-11-03T06:05:23;95006.91;;;11.85;69.84
39301;BME280;25019;42.626;23.380;2022-11-03T06:07:52;95038.75;;;12.09;69.91
39301;BME280;25019;42.626;23.380;2022-11-03T06:10:27;95020.50;;;12.01;69.82
39301;BME280;25019;42.626;23.380;2022-11-03T06:13:03;95043.81;;;12.27;70.03
39301;BME280;25019;42.626;23.380;2022-11-03T06:15:33;94919.19;;;11.56;69.48
39301;BME280;25019;42.626;23.380;2022-11-03T06:18:01;95045.19;;;12.47;68.81
39301;BME280;25019;42.626;23.380;2022-11-03T06:20:35;94989.84;;;12.15;68.79
39301;BME280;25019;42.626;23.380;2022-11-03T06:23:01;95014.63;;;12.33;68.20
39301;BME280;25019;42.626;23.380;2022-11-03T06:25:30;94976.38;;;12.22;67.72
39301;BME280;25019;42.626;23.380;2022-11-03T06:28:05;95039.72;;;12.76;67.14
39301;BME280;25019;42.626;23.380;2022-11-03T06:30:35;95059.19;;;12.99;67.19
39301;BME280;25019;42.626;23.380;2022-11-03T06:33:12;94847.84;;;11.70;66.69
39301;BME280;25019;42.626;23.380;2022-11-03T06:35:40;94968.44;;;12.66;66.28
39301;BME280;25019;42.626;23.380;2022-11-03T06:38:17;95037.69;;;13.28;66.71
39301;BME280;25019;42.626;23.380;2022-11-03T06:40:44;95062.84;;;13.54;66.55
39301;BME280;25019;42.626;23.380;2022-11-03T06:43:36;95065.91;;;13.68;66.20
39301;BME280;25019;42.626;23.380;2022-11-03T06:46:38;95048.03;;;13.69;66.10
39301;BME280;25019;42.626;23.380;2022-11-03T06:49:28;95069.38;;;13.96;65.47
39301;BME280;25019;42.626;23.380;2022-11-03T06:52:01;95020.28;;;13.70;65.04
39301;BME280;25019;42.626;23.380;2022-11-03T06:54:59;95068.25;;;14.19;64.87
39301;BME280;25019;42.626;23.380;2022-11-03T06:57:26;94983.22;;;13.73;64.57
39301;BME280;25019;42.626;23.380;2022-11-03T06:59:55;94988.41;;;13.85;64.44
39301;BME280;25019;42.626;23.380;2022-11-03T07:05:29;95036.31;;;14.35;64.01
39301;BME280;25019;42.626;23.380;2022-11-03T07:07:57;95031.84;;;14.46;63.68
39301;BME280;25019;42.626;23.380;2022-11-03T07:10:26;95056.34;;;14.70;63.48
39301;BME280;25019;42.626;23.380;2022-11-03T07:12:54;94981.31;;;14.39;63.02
39301;BME280;25019;42.626;23.380;2022-11-03T07:15:27;95043.63;;;14.88;62.68
39301;BME280;25019;42.626;23.380;2022-11-03T07:17:55;95043.72;;;15.03;62.54
39301;BME280;25019;42.626;23.380;2022-11-03T07:20:30;94991.97;;;14.77;61.89
39301;BME280;25019;42.626;23.380;2022-11-03T07:23:22;95049.16;;;15.24;61.65
39301;BME280;25019;42.626;23.380;2022-11-03T07:25:54;94996.06;;;14.95;61.34
39301;BME280;25019;42.626;23.380;2022-11-03T07:28:24;95046.25;;;15.41;61.27
39301;BME280;25019;42.626;23.380;2022-11-03T07:30:51;94974.69;;;15.00;61.29
39301;BME280;25019;42.626;23.380;2022-11-03T07:33:20;95057.03;;;15.62;60.64
39301;BME280;25019;42.626;23.380;2022-11-03T07:35:47;94994.06;;;15.33;60.33
39301;BME280;25019;42.626;23.380;2022-11-03T07:38:19;95052.47;;;15.67;59.80
39301;BME280;25019;42.626;23.380;2022-11-03T07:40:46;94987.06;;;15.27;59.34
39301;BME280;25019;42.626;23.380;2022-11-03T07:45:55;95007.97;;;15.40;59.08
39301;BME280;25019;42.626;23.380;2022-11-03T07:51:20;95042.03;;;15.76;58.72
39301;BME280;25019;42.626;23.380;2022-11-03T07:53:49;95041.25;;;15.70;59.07
39301;BME280;25019;42.626;23.380;2022-11-03T07:56:26;95008.03;;;15.61;58.64
39301;BME280;25019;42.626;23.380;2022-11-03T07:59:00;94928.72;;;15.13;58.66
39301;BME280;25019;42.626;23.380;2022-11-03T08:01:45;95003.47;;;15.62;58.44
39301;BME280;25019;42.626;23.380;2022-11-03T08:04:17;95021.72;;;15.75;58.43
39301;BME280;25019;42.626;23.380;2022-11-03T08:06:45;95034.06;;;15.86;58.39
39301;BME280;25019;42.626;23.380;2022-11-03T08:09:11;95001.06;;;15.55;58.71
39301;BME280;25019;42.626;23.380;2022-11-03T08:11:37;95007.00;;;15.78;58.70
39301;BME280;25019;42.626;23.380;2022-11-03T08:14:02;95018.25;;;15.85;58.81
39301;BME280;25019;42.626;23.380;2022-11-03T08:16:28;94904.38;;;15.20;58.47
39301;BME280;25019;42.626;23.380;2022-11-03T08:18:53;94957.72;;;15.58;58.04
39301;BME280;25019;42.626;23.380;2022-11-03T08:21:19;94969.75;;;15.76;58.05
39301;BME280;25019;42.626;23.380;2022-11-03T08:23:45;94997.66;;;16.06;58.11
39301;BME280;25019;42.626;23.380;2022-11-03T08:26:10;94968.97;;;15.91;57.80
39301;BME280;25019;42.626;23.380;2022-11-03T08:28:36;95010.25;;;16.26;57.38
39301;BME280;25019;42.626;23.380;2022-11-03T08:31:02;94876.84;;;15.51;57.04
39301;BME280;25019;42.626;23.380;2022-11-03T08:33:33;94911.94;;;15.70;57.76
39301;BME280;25019;42.626;23.380;2022-11-03T08:36:00;94918.06;;;15.70;57.50
39301;BME280;25019;42.626;23.380;2022-11-03T08:38:27;94951.31;;;16.00;57.07
39301;BME280;25019;42.626;23.380;2022-11-03T08:40:53;94963.91;;;16.00;57.60
39301;BME280;25019;42.626;23.380;2022-11-03T08:43:20;94966.03;;;16.18;57.23
39301;BME280;25019;42.626;23.380;2022-11-03T08:45:46;94917.56;;;15.94;57.42
39301;BME280;25019;42.626;23.380;2022-11-03T08:48:12;94968.19;;;16.27;57.28
39301;BME280;25019;42.626;23.380;2022-11-03T08:50:38;94947.00;;;16.25;56.77
39301;BME280;25019;42.626;23.380;2022-11-03T08:53:03;94998.94;;;16.55;56.70
39301;BME280;25019;42.626;23.380;2022-11-03T08:55:29;94984.47;;;16.46;56.72
39301;BME280;25019;42.626;23.380;2022-11-03T08:57:55;94935.50;;;16.14;56.92
39301;BME280;25019;42.626;23.380;2022-11-03T09:00:20;94969.22;;;16.41;56.36
39301;BME280;25019;42.626;23.380;2022-11-03T09:02:47;94999.72;;;16.66;56.78
39301;BME280;25019;42.626;23.380;2022-11-03T09:05:13;94953.66;;;16.38;56.55
39301;BME280;25019;42.626;23.380;2022-11-03T09:07:39;94978.56;;;16.59;56.54
39301;BME280;25019;42.626;23.380;2022-11-03T09:10:07;94995.13;;;16.77;56.18
39301;BME280;25019;42.626;23.380;2022-11-03T09:12:33;94918.03;;;16.32;56.28
39301;BME280;25019;42.626;23.380;2022-11-03T09:14:59;94969.69;;;16.69;56.34
39301;BME280;25019;42.626;23.380;2022-11-03T09:17:24;94989.22;;;16.85;55.85
39301;BME280;25019;42.626;23.380;2022-11-03T09:19:50;94961.63;;;16.69;55.97
39301;BME280;25019;42.626;23.380;2022-11-03T09:22:16;94943.94;;;16.68;55.61
39301;BME280;25019;42.626;23.380;2022-11-03T09:24:42;94859.91;;;16.23;55.65
39301;BME280;25019;42.626;23.380;2022-11-03T09:27:08;94968.50;;;17.06;55.31
39301;BME280;25019;42.626;23.380;2022-11-03T09:29:34;94980.31;;;17.11;55.52
39301;BME280;25019;42.626;23.380;2022-11-03T09:32:00;94906.13;;;16.70;55.83
39301;BME280;25019;42.626;23.380;2022-11-03T09:34:26;94966.91;;;17.11;55.47
39301;BME280;25019;42.626;23.380;2022-11-03T09:36:52;94936.34;;;17.01;55.51
39301;BME280;25019;42.626;23.380;2022-11-03T09:39:17;94946.75;;;17.08;55.49
39301;BME280;25019;42.626;23.380;2022-11-03T09:41:43;94887.31;;;16.75;55.47
39301;BME280;25019;42.626;23.380;2022-11-03T09:44:10;94953.69;;;17.25;55.08
39301;BME280;25019;42.626;23.380;2022-11-03T09:46:37;94889.94;;;16.90;55.14
39301;BME280;25019;42.626;23.380;2022-11-03T09:49:04;94902.50;;;17.11;55.09
39301;BME280;25019;42.626;23.380;2022-11-03T09:51:31;94888.00;;;17.12;54.84
39301;BME280;25019;42.626;23.380;2022-11-03T09:54:01;94907.44;;;17.33;54.51
39301;BME280;25019;42.626;23.380;2022-11-03T09:56:28;94941.09;;;17.60;54.44
39301;BME280;25019;42.626;23.380;2022-11-03T09:58:54;94862.44;;;17.19;54.17
39301;BME280;25019;42.626;23.380;2022-11-03T10:01:20;94790.84;;;16.65;53.75
39301;BME280;25019;42.626;23.380;2022-11-03T10:03:46;94897.94;;;17.46;53.75
39301;BME280;25019;42.626;23.380;2022-11-03T10:06:11;94818.28;;;17.01;52.96
39301;BME280;25019;42.626;23.380;2022-11-03T10:08:38;94919.69;;;17.84;52.58
39301;BME280;25019;42.626;23.380;2022-11-03T10:11:06;94899.72;;;17.61;52.41
39301;BME280;25019;42.626;23.380;2022-11-03T10:13:36;94895.03;;;17.77;52.49
39301;BME280;25019;42.626;23.380;2022-11-03T10:16:06;94901.41;;;17.86;52.17
39301;BME280;25019;42.626;23.380;2022-11-03T10:18:33;94740.31;;;16.82;51.69
39301;BME280;25019;42.626;23.380;2022-11-03T10:21:06;94883.16;;;17.83;51.39
39301;BME280;25019;42.626;23.380;2022-11-03T10:23:35;94815.00;;;17.44;50.26
39301;BME280;25019;42.626;23.380;2022-11-03T10:26:09;94869.91;;;17.92;50.29
39301;BME280;25019;42.626;23.380;2022-11-03T10:28:35;94813.53;;;17.62;50.05
39301;BME280;25019;42.626;23.380;2022-11-03T10:31:04;94803.13;;;17.56;49.67
39301;BME280;25019;42.626;23.380;2022-11-03T10:33:34;94831.38;;;17.77;49.61
39301;BME280;25019;42.626;23.380;2022-11-03T10:36:04;94843.31;;;17.95;49.81
39301;BME280;25019;42.626;23.380;2022-11-03T10:38:45;94822.56;;;17.72;49.65
39301;BME280;25019;42.626;23.380;2022-11-03T10:41:17;94818.91;;;17.87;49.30
39301;BME280;25019;42.626;23.380;2022-11-03T10:44:00;94865.31;;;18.27;47.68
39301;BME280;25019;42.626;23.380;2022-11-03T10:46:26;94862.91;;;18.25;46.85
39301;BME280;25019;42.626;23.380;2022-11-03T10:49:14;94817.00;;;17.92;45.89
39301;BME280;25019;42.626;23.380;2022-11-03T10:51:54;94798.41;;;17.96;44.42
39301;BME280;25019;42.626;23.380;2022-11-03T10:54:23;94850.72;;;18.33;43.39
39301;BME280;25019;42.626;23.380;2022-11-03T10:56:50;94793.28;;;18.00;44.79
39301;BME280;25019;42.626;23.380;2022-11-03T10:59:23;94782.09;;;17.63;46.69
39301;BME280;25019;42.626;23.380;2022-11-03T11:01:57;94784.47;;;17.70;46.82
39301;BME280;25019;42.626;23.380;2022-11-03T11:04:23;94767.63;;;17.59;45.73
39301;BME280;25019;42.626;23.380;2022-11-03T11:06:49;94829.38;;;18.18;45.90
39301;BME280;25019;42.626;23.380;2022-11-03T11:09:25;94808.75;;;18.13;45.25
39301;BME280;25019;42.626;23.380;2022-11-03T11:12:13;94815.63;;;18.24;45.00
39301;BME280;25019;42.626;23.380;2022-11-03T11:15:00;94795.19;;;18.23;44.17
39301;BME280;25019;42.626;23.380;2022-11-03T11:17:40;94789.75;;;18.29;42.59
39301;BME280;25019;42.626;23.380;2022-11-03T11:22:47;94798.66;;;18.48;42.73
39301;BME280;25019;42.626;23.380;2022-11-03T11:25:13;94746.41;;;18.11;42.16
39301;BME280;25019;42.626;23.380;2022-11-03T11:30:07;94799.53;;;18.63;41.98
39301;BME280;25019;42.626;23.380;2022-11-03T11:32:59;94796.56;;;18.64;41.95
39301;BME280;25019;42.626;23.380;2022-11-03T11:37:53;94749.81;;;18.41;41.42
39301;BME280;25019;42.626;23.380;2022-11-03T11:48:32;94761.75;;;18.73;40.44
39301;BME280;25019;42.626;23.380;2022-11-03T11:50:59;94768.22;;;18.91;40.48
39301;BME280;25019;42.626;23.380;2022-11-03T11:53:26;94705.25;;;18.54;40.24
39301;BME280;25019;42.626;23.380;2022-11-03T11:56:00;94761.97;;;18.96;40.78
39301;BME280;25019;42.626;23.380;2022-11-03T11:58:45;94756.44;;;19.06;41.33
39301;BME280;25019;42.626;23.380;2022-11-03T12:01:23;94734.75;;;18.97;41.11
39301;BME280;25019;42.626;23.380;2022-11-03T12:03:55;94722.03;;;19.03;41.36
39301;BME280;25019;42.626;23.380;2022-11-03T12:06:38;94750.88;;;19.16;41.82
39301;BME280;25019;42.626;23.380;2022-11-03T12:09:06;94748.13;;;19.22;41.70
39301;BME280;25019;42.626;23.380;2022-11-03T12:11:55;94747.72;;;19.28;42.20
39301;BME280;25019;42.626;23.380;2022-11-03T12:16:52;94667.78;;;18.77;41.52
39301;BME280;25019;42.626;23.380;2022-11-03T12:19:40;94740.38;;;19.34;41.51
39301;BME280;25019;42.626;23.380;2022-11-03T12:22:11;94676.41;;;18.93;41.90
39301;BME280;25019;42.626;23.380;2022-11-03T12:24:48;94730.22;;;19.31;41.64
39301;BME280;25019;42.626;23.380;2022-11-03T12:29:49;94736.69;;;19.30;41.16
39301;BME280;25019;42.626;23.380;2022-11-03T12:32:15;94698.06;;;19.21;40.97
39301;BME280;25019;42.626;23.380;2022-11-03T12:34:41;94539.59;;;18.20;40.74
39301;BME280;25019;42.626;23.380;2022-11-03T12:37:07;94705.16;;;19.30;40.67
39301;BME280;25019;42.626;23.380;2022-11-03T12:39:33;94692.88;;;19.24;40.26
39301;BME280;25019;42.626;23.380;2022-11-03T12:41:59;94590.75;;;18.67;40.26
39301;BME280;25019;42.626;23.380;2022-11-03T12:44:25;94635.56;;;18.91;40.10
39301;BME280;25019;42.626;23.380;2022-11-03T12:46:50;94630.31;;;18.99;39.97
39301;BME280;25019;42.626;23.380;2022-11-03T12:49:16;94641.91;;;19.00;40.40
39301;BME280;25019;42.626;23.380;2022-11-03T12:51:42;94684.22;;;19.27;40.13
39301;BME280;25019;42.626;23.380;2022-11-03T12:54:08;94718.56;;;19.50;39.71
39301;BME280;25019;42.626;23.380;2022-11-03T12:56:34;94638.22;;;19.10;39.55
39301;BME280;25019;42.626;23.380;2022-11-03T12:59:00;94618.88;;;19.08;39.48
39301;BME280;25019;42.626;23.380;2022-11-03T13:01:25;94645.72;;;19.27;39.76
39301;BME280;25019;42.626;23.380;2022-11-03T13:03:51;94707.41;;;19.70;39.72
39301;BME280;25019;42.626;23.380;2022-11-03T13:06:17;94617.97;;;19.12;39.23
39301;BME280;25019;42.626;23.380;2022-11-03T13:08:43;94622.78;;;19.29;38.77
39301;BME280;25019;42.626;23.380;2022-11-03T13:11:09;94564.75;;;18.95;38.72
39301;BME280;25019;42.626;23.380;2022-11-03T13:13:53;94566.72;;;19.04;38.91
39301;BME280;25019;42.626;23.380;2022-11-03T13:16:19;94689.78;;;19.92;38.24
39301;BME280;25019;42.626;23.380;2022-11-03T13:18:46;94691.19;;;19.89;38.82
39301;BME280;25019;42.626;23.380;2022-11-03T13:21:11;94642.75;;;19.56;38.78
39301;BME280;25019;42.626;23.380;2022-11-03T13:23:39;94671.59;;;19.84;38.90
39301;BME280;25019;42.626;23.380;2022-11-03T13:26:05;94584.59;;;19.27;38.60
39301;BME280;25019;42.626;23.380;2022-11-03T13:28:31;94696.88;;;20.02;38.31
39301;BME280;25019;42.626;23.380;2022-11-03T13:30:56;94696.56;;;20.03;38.40
39301;BME280;25019;42.626;23.380;2022-11-03T13:33:22;94670.50;;;19.85;38.65
39301;BME280;25019;42.626;23.380;2022-11-03T13:39:07;94585.69;;;19.40;38.57
39301;BME280;25019;42.626;23.380;2022-11-03T13:41:33;94690.16;;;19.99;38.54
39301;BME280;25019;42.626;23.380;2022-11-03T13:43:58;94643.47;;;19.76;38.48
39301;BME280;25019;42.626;23.380;2022-11-03T13:46:24;94624.28;;;19.50;38.73
39301;BME280;25019;42.626;23.380;2022-11-03T13:48:50;94679.06;;;19.87;38.79